sensor_id;sensor_type;location;lat;lon;timestamp;temperature;humidity
20398;DHT22;10358;49.590;11.030;2022-07-29T00:01:41;21.90;49.60
20398;DHT22;10358;49.590;11.030;2022-07-29T00:04:07;21.90;49.70
20398;DHT22;10358;49.590;11.030;2022-07-29T00:06:32;21.80;49.60
20398;DHT22;10358;49.590;11.030;2022-07-29T00:08:58;21.90;49.40
20398;DHT22;10358;49.590;11.030;2022-07-29T00:11:23;21.90;49.40
20398;DHT22;10358;49.590;11.030;2022-07-29T00:13:49;21.90;49.50
20398;DHT22;10358;49.590;11.030;2022-07-29T00:16:15;21.90;49.30
20398;DHT22;10358;49.590;11.030;2022-07-29T00:18:40;21.90;49.30
20398;DHT22;10358;49.590;11.030;2022-07-29T00:21:06;21.90;49.20
20398;DHT22;10358;49.590;11.030;2022-07-29T00:23:31;21.90;49.20
20398;DHT22;10358;49.590;11.030;2022-07-29T00:25:57;21.90;49.20
20398;DHT22;10358;49.590;11.030;2022-07-29T00:28:22;21.90;49.10
20398;DHT22;10358;49.590;11.030;2022-07-29T00:30:48;21.90;48.80
20398;DHT22;10358;49.590;11.030;2022-07-29T00:33:13;21.90;48.90
20398;DHT22;10358;49.590;11.030;2022-07-29T00:35:39;21.90;48.90
20398;DHT22;10358;49.590;11.030;2022-07-29T00:38:12;21.90;48.70
20398;DHT22;10358;49.590;11.030;2022-07-29T00:40:39;21.90;48.90
20398;DHT22;10358;49.590;11.030;2022-07-29T00:43:05;21.80;48.80
20398;DHT22;10358;49.590;11.030;2022-07-29T00:45:31;21.90;48.70
20398;DHT22;10358;49.590;11.030;2022-07-29T00:47:56;21.90;48.60
20398;DHT22;10358;49.590;11.030;2022-07-29T00:50:23;21.90;48.60
20398;DHT22;10358;49.590;11.030;2022-07-29T00:52:49;21.90;48.50
20398;DHT22;10358;49.590;11.030;2022-07-29T00:55:16;21.90;48.60
20398;DHT22;10358;49.590;11.030;2022-07-29T00:57:43;21.90;48.60
20398;DHT22;10358;49.590;11.030;2022-07-29T01:00:12;21.90;48.40
20398;DHT22;10358;49.590;11.030;2022-07-29T01:02:38;21.90;48.30
20398;DHT22;10358;49.590;11.030;2022-07-29T01:05:05;21.90;48.30
20398;DHT22;10358;49.590;11.030;2022-07-29T01:07:35;21.90;48.30
20398;DHT22;10358;49.590;11.030;2022-07-29T01:10:03;21.90;48.20
20398;DHT22;10358;49.590;11.030;2022-07-29T01:12:30;21.90;48.20
20398;DHT22;10358;49.590;11.030;2022-07-29T01:15:00;22.00;48.20
20398;DHT22;10358;49.590;11.030;2022-07-29T01:23:21;22.00;48.00
20398;DHT22;10358;49.590;11.030;2022-07-29T01:31:58;21.90;48.20
20398;DHT22;10358;49.590;11.030;2022-07-29T01:34:34;21.90;48.50
20398;DHT22;10358;49.590;11.030;2022-07-29T01:39:36;21.90;48.60
20398;DHT22;10358;49.590;11.030;2022-07-29T01:44:37;21.80;48.70
20398;DHT22;10358;49.590;11.030;2022-07-29T01:47:11;21.70;48.90
20398;DHT22;10358;49.590;11.030;2022-07-29T01:49:46;21.70;48.80
20398;DHT22;10358;49.590;11.030;2022-07-29T01:52:33;21.70;48.90
20398;DHT22;10358;49.590;11.030;2022-07-29T01:55:04;21.70;49.00
20398;DHT22;10358;49.590;11.030;2022-07-29T01:57:34;21.60;49.00
20398;DHT22;10358;49.590;11.030;2022-07-29T02:00:01;21.60;49.20
20398;DHT22;10358;49.590;11.030;2022-07-29T02:02:27;21.60;49.30
20398;DHT22;10358;49.590;11.030;2022-07-29T02:04:54;21.60;49.40
20398;DHT22;10358;49.590;11.030;2022-07-29T02:07:23;21.60;49.50
20398;DHT22;10358;49.590;11.030;2022-07-29T02:09:50;21.50;49.80
20398;DHT22;10358;49.590;11.030;2022-07-29T02:12:18;21.50;50.20
20398;DHT22;10358;49.590;11.030;2022-07-29T02:14:50;21.40;50.60
20398;DHT22;10358;49.590;11.030;2022-07-29T02:17:22;21.30;50.70
20398;DHT22;10358;49.590;11.030;2022-07-29T02:19:49;21.30;50.80
20398;DHT22;10358;49.590;11.030;2022-07-29T02:22:16;21.20;51.00
20398;DHT22;10358;49.590;11.030;2022-07-29T02:24:44;21.10;51.30
20398;DHT22;10358;49.590;11.030;2022-07-29T02:27:10;21.10;51.50
20398;DHT22;10358;49.590;11.030;2022-07-29T02:29:37;21.00;51.30
20398;DHT22;10358;49.590;11.030;2022-07-29T02:32:05;21.00;51.30
20398;DHT22;10358;49.590;11.030;2022-07-29T02:34:33;21.00;51.70
20398;DHT22;10358;49.590;11.030;2022-07-29T02:36:59;20.90;51.80
20398;DHT22;10358;49.590;11.030;2022-07-29T02:39:25;20.90;52.20
20398;DHT22;10358;49.590;11.030;2022-07-29T02:41:57;20.90;52.30
20398;DHT22;10358;49.590;11.030;2022-07-29T02:44:25;20.80;52.50
20398;DHT22;10358;49.590;11.030;2022-07-29T02:52:08;20.50;53.90
20398;DHT22;10358;49.590;11.030;2022-07-29T02:54:56;20.40;54.30
20398;DHT22;10358;49.590;11.030;2022-07-29T03:00:27;20.20;55.00
20398;DHT22;10358;49.590;11.030;2022-07-29T03:02:56;20.10;55.50
20398;DHT22;10358;49.590;11.030;2022-07-29T03:05:22;20.10;55.80
20398;DHT22;10358;49.590;11.030;2022-07-29T03:07:53;20.10;55.90
20398;DHT22;10358;49.590;11.030;2022-07-29T03:10:21;20.00;56.10
20398;DHT22;10358;49.590;11.030;2022-07-29T03:12:47;19.90;56.50
20398;DHT22;10358;49.590;11.030;2022-07-29T03:15:13;19.80;56.70
20398;DHT22;10358;49.590;11.030;2022-07-29T03:17:39;19.70;56.90
20398;DHT22;10358;49.590;11.030;2022-07-29T03:20:06;19.70;57.50
20398;DHT22;10358;49.590;11.030;2022-07-29T03:22:33;19.70;57.50
20398;DHT22;10358;49.590;11.030;2022-07-29T03:25:08;19.60;57.20
20398;DHT22;10358;49.590;11.030;2022-07-29T03:27:34;19.60;57.40
20398;DHT22;10358;49.590;11.030;2022-07-29T03:29:59;19.50;57.20
20398;DHT22;10358;49.590;11.030;2022-07-29T03:32:25;19.60;57.20
20398;DHT22;10358;49.590;11.030;2022-07-29T03:34:50;19.60;57.00
20398;DHT22;10358;49.590;11.030;2022-07-29T03:37:16;19.60;56.80
20398;DHT22;10358;49.590;11.030;2022-07-29T03:39:43;19.60;57.00
20398;DHT22;10358;49.590;11.030;2022-07-29T03:42:12;19.60;57.10
20398;DHT22;10358;49.590;11.030;2022-07-29T03:44:41;19.60;57.40
20398;DHT22;10358;49.590;11.030;2022-07-29T03:47:08;19.60;57.40
20398;DHT22;10358;49.590;11.030;2022-07-29T03:49:36;19.60;57.70
20398;DHT22;10358;49.590;11.030;2022-07-29T03:52:03;19.60;58.20
20398;DHT22;10358;49.590;11.030;2022-07-29T03:54:29;19.50;58.40
20398;DHT22;10358;49.590;11.030;2022-07-29T03:56:57;19.40;58.60
20398;DHT22;10358;49.590;11.030;2022-07-29T03:59:24;19.30;58.70
20398;DHT22;10358;49.590;11.030;2022-07-29T04:01:50;19.20;58.90
20398;DHT22;10358;49.590;11.030;2022-07-29T04:04:16;19.10;58.80
20398;DHT22;10358;49.590;11.030;2022-07-29T04:06:44;19.10;58.90
20398;DHT22;10358;49.590;11.030;2022-07-29T04:09:10;19.10;59.20
20398;DHT22;10358;49.590;11.030;2022-07-29T04:11:38;19.10;59.30
20398;DHT22;10358;49.590;11.030;2022-07-29T04:14:04;19.00;59.20
20398;DHT22;10358;49.590;11.030;2022-07-29T04:16:30;19.10;59.20
20398;DHT22;10358;49.590;11.030;2022-07-29T04:18:56;19.00;59.30
20398;DHT22;10358;49.590;11.030;2022-07-29T04:21:22;19.00;59.80
20398;DHT22;10358;49.590;11.030;2022-07-29T04:23:47;19.10;59.60
20398;DHT22;10358;49.590;11.030;2022-07-29T04:26:16;19.00;59.80
20398;DHT22;10358;49.590;11.030;2022-07-29T04:28:41;19.00;60.10
20398;DHT22;10358;49.590;11.030;2022-07-29T04:31:08;19.00;60.40
20398;DHT22;10358;49.590;11.030;2022-07-29T04:33:34;18.90;60.70
20398;DHT22;10358;49.590;11.030;2022-07-29T04:35:59;18.90;60.90
20398;DHT22;10358;49.590;11.030;2022-07-29T04:38:25;18.90;60.90
20398;DHT22;10358;49.590;11.030;2022-07-29T04:40:50;19.00;60.70
20398;DHT22;10358;49.590;11.030;2022-07-29T04:43:16;19.00;60.50
20398;DHT22;10358;49.590;11.030;2022-07-29T04:45:42;19.00;60.80
20398;DHT22;10358;49.590;11.030;2022-07-29T04:48:07;19.00;60.70
20398;DHT22;10358;49.590;11.030;2022-07-29T04:50:33;19.00;61.00
20398;DHT22;10358;49.590;11.030;2022-07-29T04:52:59;19.00;61.20
20398;DHT22;10358;49.590;11.030;2022-07-29T04:55:24;19.00;61.30
20398;DHT22;10358;49.590;11.030;2022-07-29T04:57:50;19.10;61.00
20398;DHT22;10358;49.590;11.030;2022-07-29T05:00:16;19.10;61.00
20398;DHT22;10358;49.590;11.030;2022-07-29T05:02:42;19.00;61.40
20398;DHT22;10358;49.590;11.030;2022-07-29T05:05:08;19.10;61.70
20398;DHT22;10358;49.590;11.030;2022-07-29T05:07:33;19.20;61.80
20398;DHT22;10358;49.590;11.030;2022-07-29T05:09:59;19.30;61.50
20398;DHT22;10358;49.590;11.030;2022-07-29T05:12:25;19.40;61.60
20398;DHT22;10358;49.590;11.030;2022-07-29T05:14:51;19.40;61.40
20398;DHT22;10358;49.590;11.030;2022-07-29T05:17:16;19.40;61.40
20398;DHT22;10358;49.590;11.030;2022-07-29T05:19:42;19.30;61.40
20398;DHT22;10358;49.590;11.030;2022-07-29T05:22:07;19.30;62.00
20398;DHT22;10358;49.590;11.030;2022-07-29T05:24:33;19.30;62.30
20398;DHT22;10358;49.590;11.030;2022-07-29T05:26:58;19.40;62.10
20398;DHT22;10358;49.590;11.030;2022-07-29T05:29:24;19.60;62.00
20398;DHT22;10358;49.590;11.030;2022-07-29T05:31:49;19.60;62.10
20398;DHT22;10358;49.590;11.030;2022-07-29T05:34:17;19.70;62.30
20398;DHT22;10358;49.590;11.030;2022-07-29T05:36:42;19.70;62.20
20398;DHT22;10358;49.590;11.030;2022-07-29T05:39:08;19.70;62.40
20398;DHT22;10358;49.590;11.030;2022-07-29T05:41:33;19.70;62.30
20398;DHT22;10358;49.590;11.030;2022-07-29T05:43:59;19.80;62.60
20398;DHT22;10358;49.590;11.030;2022-07-29T05:46:24;19.90;62.60
20398;DHT22;10358;49.590;11.030;2022-07-29T05:48:50;19.90;62.80
20398;DHT22;10358;49.590;11.030;2022-07-29T05:51:16;20.00;63.00
20398;DHT22;10358;49.590;11.030;2022-07-29T05:53:41;20.10;63.10
20398;DHT22;10358;49.590;11.030;2022-07-29T05:56:07;20.10;62.80
20398;DHT22;10358;49.590;11.030;2022-07-29T05:58:33;20.20;62.70
20398;DHT22;10358;49.590;11.030;2022-07-29T06:00:58;20.20;62.90
20398;DHT22;10358;49.590;11.030;2022-07-29T06:03:27;20.20;63.00
20398;DHT22;10358;49.590;11.030;2022-07-29T06:05:53;20.20;63.10
20398;DHT22;10358;49.590;11.030;2022-07-29T06:08:19;20.30;62.80
20398;DHT22;10358;49.590;11.030;2022-07-29T06:10:44;20.40;62.30
20398;DHT22;10358;49.590;11.030;2022-07-29T06:13:11;20.60;61.60
20398;DHT22;10358;49.590;11.030;2022-07-29T06:15:37;20.70;60.90
20398;DHT22;10358;49.590;11.030;2022-07-29T06:18:03;20.80;60.30
20398;DHT22;10358;49.590;11.030;2022-07-29T06:20:29;21.00;60.10
20398;DHT22;10358;49.590;11.030;2022-07-29T06:22:55;21.10;59.90
20398;DHT22;10358;49.590;11.030;2022-07-29T06:25:21;21.20;59.50
20398;DHT22;10358;49.590;11.030;2022-07-29T06:27:46;21.40;59.20
20398;DHT22;10358;49.590;11.030;2022-07-29T06:30:12;21.50;58.80
20398;DHT22;10358;49.590;11.030;2022-07-29T06:32:38;21.60;58.40
20398;DHT22;10358;49.590;11.030;2022-07-29T06:35:04;21.70;58.20
20398;DHT22;10358;49.590;11.030;2022-07-29T06:37:29;21.80;58.00
20398;DHT22;10358;49.590;11.030;2022-07-29T06:39:55;22.00;57.60
20398;DHT22;10358;49.590;11.030;2022-07-29T06:42:43;22.10;57.10
20398;DHT22;10358;49.590;11.030;2022-07-29T06:45:10;22.30;56.40
20398;DHT22;10358;49.590;11.030;2022-07-29T06:47:35;22.40;55.90
20398;DHT22;10358;49.590;11.030;2022-07-29T06:50:01;22.50;55.50
20398;DHT22;10358;49.590;11.030;2022-07-29T06:52:26;22.60;55.20
20398;DHT22;10358;49.590;11.030;2022-07-29T06:54:52;22.70;55.00
20398;DHT22;10358;49.590;11.030;2022-07-29T06:57:17;22.80;54.80
20398;DHT22;10358;49.590;11.030;2022-07-29T06:59:43;22.90;54.50
20398;DHT22;10358;49.590;11.030;2022-07-29T07:02:08;23.10;54.20
20398;DHT22;10358;49.590;11.030;2022-07-29T07:04:34;23.20;54.00
20398;DHT22;10358;49.590;11.030;2022-07-29T07:07:00;23.30;53.70
20398;DHT22;10358;49.590;11.030;2022-07-29T07:09:26;23.50;53.40
20398;DHT22;10358;49.590;11.030;2022-07-29T07:11:51;23.60;53.10
20398;DHT22;10358;49.590;11.030;2022-07-29T07:14:17;23.80;52.70
20398;DHT22;10358;49.590;11.030;2022-07-29T07:16:42;24.00;52.20
20398;DHT22;10358;49.590;11.030;2022-07-29T07:19:08;24.10;51.90
20398;DHT22;10358;49.590;11.030;2022-07-29T07:21:33;24.30;51.80
20398;DHT22;10358;49.590;11.030;2022-07-29T07:23:59;24.30;51.60
20398;DHT22;10358;49.590;11.030;2022-07-29T07:26:25;24.40;51.60
20398;DHT22;10358;49.590;11.030;2022-07-29T07:28:52;24.40;51.60
20398;DHT22;10358;49.590;11.030;2022-07-29T07:31:17;24.50;51.50
20398;DHT22;10358;49.590;11.030;2022-07-29T07:33:43;24.50;51.30
20398;DHT22;10358;49.590;11.030;2022-07-29T07:36:09;24.50;50.90
20398;DHT22;10358;49.590;11.030;2022-07-29T07:38:34;24.60;51.10
20398;DHT22;10358;49.590;11.030;2022-07-29T07:41:00;24.60;51.10
20398;DHT22;10358;49.590;11.030;2022-07-29T07:43:26;24.60;51.00
20398;DHT22;10358;49.590;11.030;2022-07-29T07:45:52;24.70;51.10
20398;DHT22;10358;49.590;11.030;2022-07-29T07:48:18;24.70;50.90
20398;DHT22;10358;49.590;11.030;2022-07-29T07:50:43;24.80;50.90
20398;DHT22;10358;49.590;11.030;2022-07-29T07:53:09;24.80;50.90
20398;DHT22;10358;49.590;11.030;2022-07-29T07:55:40;24.90;50.90
20398;DHT22;10358;49.590;11.030;2022-07-29T07:58:05;24.90;50.70
20398;DHT22;10358;49.590;11.030;2022-07-29T08:00:31;24.90;50.60
20398;DHT22;10358;49.590;11.030;2022-07-29T08:02:58;24.90;50.50
20398;DHT22;10358;49.590;11.030;2022-07-29T08:05:23;24.90;50.60
20398;DHT22;10358;49.590;11.030;2022-07-29T08:07:49;25.10;50.60
20398;DHT22;10358;49.590;11.030;2022-07-29T08:10:16;25.10;50.70
20398;DHT22;10358;49.590;11.030;2022-07-29T08:13:03;25.30;50.90
20398;DHT22;10358;49.590;11.030;2022-07-29T08:15:29;25.40;50.70
20398;DHT22;10358;49.590;11.030;2022-07-29T08:17:54;25.40;50.20
20398;DHT22;10358;49.590;11.030;2022-07-29T08:20:20;25.50;50.10
20398;DHT22;10358;49.590;11.030;2022-07-29T08:22:45;25.70;50.20
20398;DHT22;10358;49.590;11.030;2022-07-29T08:25:11;25.80;49.80
20398;DHT22;10358;49.590;11.030;2022-07-29T08:27:37;25.90;49.40
20398;DHT22;10358;49.590;11.030;2022-07-29T08:30:02;26.00;49.20
20398;DHT22;10358;49.590;11.030;2022-07-29T08:32:28;26.10;48.80
20398;DHT22;10358;49.590;11.030;2022-07-29T08:34:54;26.20;48.50
20398;DHT22;10358;49.590;11.030;2022-07-29T08:37:19;26.30;48.20
20398;DHT22;10358;49.590;11.030;2022-07-29T08:39:45;26.40;48.10
20398;DHT22;10358;49.590;11.030;2022-07-29T08:42:11;26.50;47.80
20398;DHT22;10358;49.590;11.030;2022-07-29T08:44:36;26.70;47.80
20398;DHT22;10358;49.590;11.030;2022-07-29T08:47:02;26.90;47.90
20398;DHT22;10358;49.590;11.030;2022-07-29T08:49:28;27.00;47.70
20398;DHT22;10358;49.590;11.030;2022-07-29T08:51:55;27.20;47.60
20398;DHT22;10358;49.590;11.030;2022-07-29T08:54:23;27.40;47.40
20398;DHT22;10358;49.590;11.030;2022-07-29T08:56:50;27.60;47.20
20398;DHT22;10358;49.590;11.030;2022-07-29T08:59:20;27.70;47.00
20398;DHT22;10358;49.590;11.030;2022-07-29T09:01:48;27.80;47.00
20398;DHT22;10358;49.590;11.030;2022-07-29T09:04:14;27.80;47.00
20398;DHT22;10358;49.590;11.030;2022-07-29T09:06:44;27.80;46.60
20398;DHT22;10358;49.590;11.030;2022-07-29T09:09:10;27.80;46.70
20398;DHT22;10358;49.590;11.030;2022-07-29T09:11:36;27.90;46.80
20398;DHT22;10358;49.590;11.030;2022-07-29T09:14:01;28.10;46.70
20398;DHT22;10358;49.590;11.030;2022-07-29T09:16:47;28.20;46.50
20398;DHT22;10358;49.590;11.030;2022-07-29T09:19:25;28.40;45.80
20398;DHT22;10358;49.590;11.030;2022-07-29T09:21:52;28.50;45.20
20398;DHT22;10358;49.590;11.030;2022-07-29T09:27:00;28.60;44.70
20398;DHT22;10358;49.590;11.030;2022-07-29T09:29:26;28.60;44.60
20398;DHT22;10358;49.590;11.030;2022-07-29T09:31:54;28.70;44.40
20398;DHT22;10358;49.590;11.030;2022-07-29T09:34:23;28.70;44.50
20398;DHT22;10358;49.590;11.030;2022-07-29T09:36:50;28.80;44.60
20398;DHT22;10358;49.590;11.030;2022-07-29T09:39:38;28.80;44.50
20398;DHT22;10358;49.590;11.030;2022-07-29T09:42:11;28.80;44.40
20398;DHT22;10358;49.590;11.030;2022-07-29T09:44:47;28.90;44.60
20398;DHT22;10358;49.590;11.030;2022-07-29T09:47:15;28.90;44.80
20398;DHT22;10358;49.590;11.030;2022-07-29T09:49:59;28.80;44.90
20398;DHT22;10358;49.590;11.030;2022-07-29T09:52:26;28.60;45.30
20398;DHT22;10358;49.590;11.030;2022-07-29T09:54:53;28.50;45.60
20398;DHT22;10358;49.590;11.030;2022-07-29T09:57:25;28.40;46.00
20398;DHT22;10358;49.590;11.030;2022-07-29T10:02:33;28.30;46.60
20398;DHT22;10358;49.590;11.030;2022-07-29T10:05:01;28.40;46.60
20398;DHT22;10358;49.590;11.030;2022-07-29T10:08:19;28.50;46.50
20398;DHT22;10358;49.590;11.030;2022-07-29T10:10:37;28.60;46.30
20398;DHT22;10358;49.590;11.030;2022-07-29T10:13:05;28.60;46.80
20398;DHT22;10358;49.590;11.030;2022-07-29T10:15:33;28.70;47.30
20398;DHT22;10358;49.590;11.030;2022-07-29T10:18:02;28.80;47.00
20398;DHT22;10358;49.590;11.030;2022-07-29T10:20:27;28.90;46.70
20398;DHT22;10358;49.590;11.030;2022-07-29T10:22:54;29.00;46.70
20398;DHT22;10358;49.590;11.030;2022-07-29T10:25:21;29.10;46.30
20398;DHT22;10358;49.590;11.030;2022-07-29T10:27:48;29.20;46.00
20398;DHT22;10358;49.590;11.030;2022-07-29T10:30:15;29.20;45.80
20398;DHT22;10358;49.590;11.030;2022-07-29T10:38:29;29.30;46.10
20398;DHT22;10358;49.590;11.030;2022-07-29T10:44:01;29.60;45.90
20398;DHT22;10358;49.590;11.030;2022-07-29T10:46:27;29.70;46.80
20398;DHT22;10358;49.590;11.030;2022-07-29T10:51:51;29.70;49.70
20398;DHT22;10358;49.590;11.030;2022-07-29T10:54:43;29.50;47.40
20398;DHT22;10358;49.590;11.030;2022-07-29T10:59:42;29.30;46.90
20398;DHT22;10358;49.590;11.030;2022-07-29T11:05:03;29.40;47.60
20398;DHT22;10358;49.590;11.030;2022-07-29T11:07:29;29.40;48.00
20398;DHT22;10358;49.590;11.030;2022-07-29T11:15:09;29.10;47.80
20398;DHT22;10358;49.590;11.030;2022-07-29T11:25:43;29.20;50.00
20398;DHT22;10358;49.590;11.030;2022-07-29T11:28:15;29.20;50.30
20398;DHT22;10358;49.590;11.030;2022-07-29T11:30:50;29.30;49.90
20398;DHT22;10358;49.590;11.030;2022-07-29T11:33:34;29.40;49.20
20398;DHT22;10358;49.590;11.030;2022-07-29T11:38:33;29.60;49.00
20398;DHT22;10358;49.590;11.030;2022-07-29T11:41:21;29.70;48.70
20398;DHT22;10358;49.590;11.030;2022-07-29T11:43:49;29.80;49.00
20398;DHT22;10358;49.590;11.030;2022-07-29T11:47:03;29.90;48.30
20398;DHT22;10358;49.590;11.030;2022-07-29T11:49:04;29.90;48.10
20398;DHT22;10358;49.590;11.030;2022-07-29T11:51:30;29.90;47.50
20398;DHT22;10358;49.590;11.030;2022-07-29T11:53:57;29.90;47.50
20398;DHT22;10358;49.590;11.030;2022-07-29T11:56:23;29.80;47.20
20398;DHT22;10358;49.590;11.030;2022-07-29T11:58:59;29.80;47.90
20398;DHT22;10358;49.590;11.030;2022-07-29T12:01:26;29.70;47.90
20398;DHT22;10358;49.590;11.030;2022-07-29T12:04:02;29.70;48.60
20398;DHT22;10358;49.590;11.030;2022-07-29T12:06:29;29.70;47.80
20398;DHT22;10358;49.590;11.030;2022-07-29T12:08:55;29.60;47.60
20398;DHT22;10358;49.590;11.030;2022-07-29T12:11:20;29.60;47.30
20398;DHT22;10358;49.590;11.030;2022-07-29T12:13:46;29.70;47.30
20398;DHT22;10358;49.590;11.030;2022-07-29T12:16:11;29.70;47.20
20398;DHT22;10358;49.590;11.030;2022-07-29T12:18:37;29.80;47.40
20398;DHT22;10358;49.590;11.030;2022-07-29T12:21:03;29.80;48.00
20398;DHT22;10358;49.590;11.030;2022-07-29T12:23:33;30.00;47.50
20398;DHT22;10358;49.590;11.030;2022-07-29T12:25:59;30.10;47.00
20398;DHT22;10358;49.590;11.030;2022-07-29T12:28:24;30.30;46.70
20398;DHT22;10358;49.590;11.030;2022-07-29T12:30:51;30.40;46.10
20398;DHT22;10358;49.590;11.030;2022-07-29T12:35:45;30.70;44.60
20398;DHT22;10358;49.590;11.030;2022-07-29T12:38:11;30.60;43.70
20398;DHT22;10358;49.590;11.030;2022-07-29T12:40:38;30.60;43.90
20398;DHT22;10358;49.590;11.030;2022-07-29T12:43:23;30.90;43.90
20398;DHT22;10358;49.590;11.030;2022-07-29T12:45:56;31.20;43.20
20398;DHT22;10358;49.590;11.030;2022-07-29T12:48:42;31.40;42.80
20398;DHT22;10358;49.590;11.030;2022-07-29T12:51:09;31.60;42.50
20398;DHT22;10358;49.590;11.030;2022-07-29T12:53:36;31.70;42.10
20398;DHT22;10358;49.590;11.030;2022-07-29T12:56:03;31.80;41.90
20398;DHT22;10358;49.590;11.030;2022-07-29T12:58:38;31.90;41.80
20398;DHT22;10358;49.590;11.030;2022-07-29T13:01:05;32.00;41.80
20398;DHT22;10358;49.590;11.030;2022-07-29T13:03:52;32.20;42.20
20398;DHT22;10358;49.590;11.030;2022-07-29T13:06:29;32.20;41.40
20398;DHT22;10358;49.590;11.030;2022-07-29T13:09:06;32.30;41.30
20398;DHT22;10358;49.590;11.030;2022-07-29T13:11:33;32.20;42.00
20398;DHT22;10358;49.590;11.030;2022-07-29T13:13:58;32.10;41.00
20398;DHT22;10358;49.590;11.030;2022-07-29T13:16:24;32.00;40.80
20398;DHT22;10358;49.590;11.030;2022-07-29T13:21:31;32.40;40.70
20398;DHT22;10358;49.590;11.030;2022-07-29T13:23:57;32.60;40.50
20398;DHT22;10358;49.590;11.030;2022-07-29T13:26:22;32.80;40.20
20398;DHT22;10358;49.590;11.030;2022-07-29T13:28:48;33.10;39.90
20398;DHT22;10358;49.590;11.030;2022-07-29T13:31:13;33.20;39.50
20398;DHT22;10358;49.590;11.030;2022-07-29T13:33:39;33.10;39.30
20398;DHT22;10358;49.590;11.030;2022-07-29T13:36:05;33.20;39.40
20398;DHT22;10358;49.590;11.030;2022-07-29T13:38:30;33.30;39.20
20398;DHT22;10358;49.590;11.030;2022-07-29T13:40:57;33.60;38.70
20398;DHT22;10358;49.590;11.030;2022-07-29T13:43:23;33.70;38.30
20398;DHT22;10358;49.590;11.030;2022-07-29T13:45:48;33.70;38.00
20398;DHT22;10358;49.590;11.030;2022-07-29T13:48:14;33.70;37.90
20398;DHT22;10358;49.590;11.030;2022-07-29T13:50:40;33.60;38.00
20398;DHT22;10358;49.590;11.030;2022-07-29T13:53:05;33.50;38.20
20398;DHT22;10358;49.590;11.030;2022-07-29T13:55:31;33.30;38.10
20398;DHT22;10358;49.590;11.030;2022-07-29T13:57:56;32.90;38.80
20398;DHT22;10358;49.590;11.030;2022-07-29T14:00:24;32.60;39.90
20398;DHT22;10358;49.590;11.030;2022-07-29T14:02:51;32.20;40.90
20398;DHT22;10358;49.590;11.030;2022-07-29T14:05:17;31.90;41.80
20398;DHT22;10358;49.590;11.030;2022-07-29T14:07:43;31.60;42.10
20398;DHT22;10358;49.590;11.030;2022-07-29T14:10:09;31.20;42.10
20398;DHT22;10358;49.590;11.030;2022-07-29T14:12:34;30.70;42.10
20398;DHT22;10358;49.590;11.030;2022-07-29T14:15:01;30.30;42.60
20398;DHT22;10358;49.590;11.030;2022-07-29T14:17:26;29.80;43.70
20398;DHT22;10358;49.590;11.030;2022-07-29T14:19:52;29.40;45.00
20398;DHT22;10358;49.590;11.030;2022-07-29T14:22:17;29.10;46.30
20398;DHT22;10358;49.590;11.030;2022-07-29T14:24:44;28.80;47.90
20398;DHT22;10358;49.590;11.030;2022-07-29T14:27:10;28.30;50.50
20398;DHT22;10358;49.590;11.030;2022-07-29T14:29:36;27.90;53.10
20398;DHT22;10358;49.590;11.030;2022-07-29T14:32:02;27.50;55.30
20398;DHT22;10358;49.590;11.030;2022-07-29T14:34:28;27.00;57.20
20398;DHT22;10358;49.590;11.030;2022-07-29T14:36:53;26.50;59.80
20398;DHT22;10358;49.590;11.030;2022-07-29T14:39:21;26.00;63.50
20398;DHT22;10358;49.590;11.030;2022-07-29T14:41:48;25.30;67.70
20398;DHT22;10358;49.590;11.030;2022-07-29T14:44:14;24.70;70.90
20398;DHT22;10358;49.590;11.030;2022-07-29T14:46:40;24.40;73.50
20398;DHT22;10358;49.590;11.030;2022-07-29T14:49:05;24.10;75.90
20398;DHT22;10358;49.590;11.030;2022-07-29T14:51:31;23.90;78.50
20398;DHT22;10358;49.590;11.030;2022-07-29T14:53:57;23.80;80.70
20398;DHT22;10358;49.590;11.030;2022-07-29T14:56:23;23.60;82.30
20398;DHT22;10358;49.590;11.030;2022-07-29T14:58:48;23.50;84.50
20398;DHT22;10358;49.590;11.030;2022-07-29T15:01:14;23.40;85.80
20398;DHT22;10358;49.590;11.030;2022-07-29T15:03:39;23.30;87.20
20398;DHT22;10358;49.590;11.030;2022-07-29T15:06:05;23.10;89.50
20398;DHT22;10358;49.590;11.030;2022-07-29T15:08:31;23.10;90.50
20398;DHT22;10358;49.590;11.030;2022-07-29T15:10:56;23.00;91.60
20398;DHT22;10358;49.590;11.030;2022-07-29T15:13:25;23.00;92.20
20398;DHT22;10358;49.590;11.030;2022-07-29T15:15:50;23.00;93.10
20398;DHT22;10358;49.590;11.030;2022-07-29T15:18:16;22.90;93.90
20398;DHT22;10358;49.590;11.030;2022-07-29T15:20:42;22.80;94.50
20398;DHT22;10358;49.590;11.030;2022-07-29T15:23:07;22.70;95.40
20398;DHT22;10358;49.590;11.030;2022-07-29T15:25:35;22.60;95.80
20398;DHT22;10358;49.590;11.030;2022-07-29T15:28:01;22.50;96.50
20398;DHT22;10358;49.590;11.030;2022-07-29T15:30:30;22.50;97.00
20398;DHT22;10358;49.590;11.030;2022-07-29T15:32:55;22.40;97.60
20398;DHT22;10358;49.590;11.030;2022-07-29T15:35:21;22.30;98.30
20398;DHT22;10358;49.590;11.030;2022-07-29T15:37:46;22.30;99.10
20398;DHT22;10358;49.590;11.030;2022-07-29T15:40:12;22.30;99.40
20398;DHT22;10358;49.590;11.030;2022-07-29T15:42:37;22.40;99.90
20398;DHT22;10358;49.590;11.030;2022-07-29T15:45:04;22.20;99.90
20398;DHT22;10358;49.590;11.030;2022-07-29T15:47:29;22.00;99.90
20398;DHT22;10358;49.590;11.030;2022-07-29T15:49:55;21.40;99.90
20398;DHT22;10358;49.590;11.030;2022-07-29T15:52:21;21.10;99.90
20398;DHT22;10358;49.590;11.030;2022-07-29T15:54:46;20.80;99.90
20398;DHT22;10358;49.590;11.030;2022-07-29T15:57:12;20.50;99.90
20398;DHT22;10358;49.590;11.030;2022-07-29T15:59:38;20.30;99.90
20398;DHT22;10358;49.590;11.030;2022-07-29T16:02:04;20.20;99.90
20398;DHT22;10358;49.590;11.030;2022-07-29T16:04:30;20.20;99.90
20398;DHT22;10358;49.590;11.030;2022-07-29T16:06:56;20.30;99.90
20398;DHT22;10358;49.590;11.030;2022-07-29T16:09:22;20.30;99.90
20398;DHT22;10358;49.590;11.030;2022-07-29T16:11:48;20.30;99.90
20398;DHT22;10358;49.590;11.030;2022-07-29T16:14:18;20.30;99.90
20398;DHT22;10358;49.590;11.030;2022-07-29T16:16:44;20.20;99.90
20398;DHT22;10358;49.590;11.030;2022-07-29T16:19:10;19.90;99.90
20398;DHT22;10358;49.590;11.030;2022-07-29T16:21:36;19.80;99.90
20398;DHT22;10358;49.590;11.030;2022-07-29T16:24:03;19.70;99.90
20398;DHT22;10358;49.590;11.030;2022-07-29T16:26:30;19.70;99.90